createdAt,value
2019-04-28T00:02:11.091Z,8.23
2019-04-28T00:05:14.705Z,10.87
2019-04-28T00:08:18.161Z,9.23
2019-04-28T00:11:21.764Z,8.43
2019-04-28T00:14:25.228Z,9.63
2019-04-28T00:17:28.678Z,9.93
2019-04-28T00:20:34.994Z,8.93
2019-04-28T00:23:48.721Z,8.90
2019-04-28T00:26:53.817Z,11.97
2019-04-28T00:29:57.268Z,12.57
2019-04-28T00:33:01.784Z,10.60
2019-04-28T00:36:05.321Z,11.03
2019-04-28T00:39:08.783Z,10.00
2019-04-28T00:42:12.213Z,15.23
2019-04-28T00:45:16.006Z,13.90
2019-04-28T00:48:20.911Z,16.83
2019-04-28T00:51:24.579Z,14.53
2019-04-28T00:54:28.009Z,16.53
2019-04-28T00:57:31.536Z,13.53
2019-04-28T01:00:36.618Z,14.73
2019-04-28T01:03:41.765Z,15.07
2019-04-28T01:06:45.249Z,14.83
2019-04-28T01:09:48.710Z,12.40
2019-04-28T01:12:52.148Z,17.10
2019-04-28T01:15:59.914Z,15.97
2019-04-28T01:19:10.501Z,13.90
2019-04-28T01:22:15.412Z,10.83
2019-04-28T01:25:20.330Z,22.47
2019-04-28T01:28:23.906Z,11.23
2019-04-28T01:31:31.971Z,12.37
2019-04-28T01:34:35.435Z,11.67
2019-04-28T01:37:40.600Z,11.67
2019-04-28T01:40:44.058Z,11.90
2019-04-28T01:43:47.511Z,12.20
2019-04-28T01:46:50.970Z,14.17
2019-04-28T01:49:54.406Z,14.80
2019-04-28T01:52:59.731Z,11.30
2019-04-28T01:56:03.033Z,13.73
2019-04-28T01:59:06.494Z,12.87
2019-04-28T02:02:10.270Z,12.90
2019-04-28T02:05:14.715Z,15.17
2019-04-28T02:08:20.112Z,11.87
2019-04-28T02:11:23.338Z,17.10
2019-04-28T02:14:26.891Z,13.77
2019-04-28T02:17:30.659Z,18.03
2019-04-28T02:20:34.169Z,13.10
2019-04-28T02:23:39.582Z,14.23
2019-04-28T02:26:42.858Z,12.17
2019-04-28T02:29:46.301Z,13.23
2019-04-28T02:32:51.892Z,14.27
2019-04-28T02:35:54.928Z,12.57
2019-04-28T02:39:00.649Z,16.70
2019-04-28T02:42:03.631Z,13.00
2019-04-28T02:45:08.126Z,13.83
2019-04-28T02:48:13.213Z,11.70
2019-04-28T02:51:20.704Z,14.50
2019-04-28T02:54:23.503Z,15.23
2019-04-28T02:57:26.970Z,12.37
2019-04-28T03:00:31.758Z,14.70
2019-04-28T03:03:35.522Z,16.10
2019-04-28T03:06:40.779Z,14.40
2019-04-28T03:09:44.157Z,13.87
2019-04-28T03:12:47.595Z,14.33
2019-04-28T03:15:51.762Z,13.67
2019-04-28T03:18:55.346Z,14.00
2019-04-28T03:22:01.343Z,13.97
2019-04-28T03:25:07.510Z,14.73
2019-04-28T03:28:12.618Z,12.93
2019-04-28T03:31:50.937Z,15.10
2019-04-28T03:34:53.120Z,14.90
2019-04-28T03:37:53.502Z,14.90
2019-04-28T03:40:56.981Z,13.80
2019-04-28T03:44:00.635Z,12.83
2019-04-28T03:47:04.250Z,13.37
2019-04-28T03:50:10.188Z,14.90
2019-04-28T03:53:12.954Z,14.13
2019-04-28T03:56:16.406Z,16.83
2019-04-28T03:59:21.218Z,12.40
2019-04-28T04:02:24.879Z,16.00
2019-04-28T04:05:30.639Z,14.50
2019-04-28T04:08:33.525Z,12.53
2019-04-28T04:11:40.907Z,9.70
2019-04-28T04:14:50.577Z,11.23
2019-04-28T04:18:06.977Z,10.63
2019-04-28T04:21:11.369Z,13.13
2019-04-28T04:24:14.921Z,12.53
2019-04-28T04:27:20.779Z,11.97
2019-04-28T04:30:23.543Z,14.70
2019-04-28T04:33:26.980Z,11.87
2019-04-28T04:36:31.162Z,12.63
2019-04-28T04:39:34.767Z,13.20
2019-04-28T04:42:40.323Z,10.13
2019-04-28T04:45:43.384Z,10.73
2019-04-28T04:48:46.852Z,10.47
2019-04-28T04:51:50.941Z,13.97
2019-04-28T04:54:54.769Z,12.00
2019-04-28T04:58:00.596Z,14.40
2019-04-28T05:01:11.058Z,12.63
2019-04-28T05:04:24.857Z,16.33
2019-04-28T05:07:29.683Z,13.43
2019-04-28T05:10:33.329Z,13.37
2019-04-28T05:13:36.789Z,11.37
2019-04-28T05:16:40.225Z,12.93
2019-04-28T05:19:43.701Z,12.80
2019-04-28T05:22:51.714Z,13.63
2019-04-28T05:25:55.169Z,11.53
2019-04-28T05:28:59.548Z,15.33
2019-04-28T05:32:03.684Z,14.50
2019-04-28T05:35:07.436Z,11.83
2019-04-28T05:38:10.890Z,13.03
2019-04-28T05:41:14.349Z,13.53
2019-04-28T05:44:19.898Z,12.43
2019-04-28T05:47:22.995Z,15.90
2019-04-28T05:50:37.017Z,14.37
2019-04-28T05:53:42.122Z,16.07
2019-04-28T05:56:47.205Z,23.17
2019-04-28T06:00:04.591Z,12.77
2019-04-28T06:03:12.660Z,14.30
2019-04-28T06:06:16.858Z,13.13
2019-04-28T06:09:21.938Z,18.07
2019-04-28T06:12:25.415Z,13.13
2019-04-28T06:15:29.472Z,11.27
2019-04-28T06:18:33.097Z,11.67
2019-04-28T06:21:36.566Z,8.70
2019-04-28T06:24:40.001Z,9.17
2019-04-28T06:27:43.479Z,10.37
2019-04-28T06:30:46.918Z,9.70
2019-04-28T06:33:50.394Z,8.93
2019-04-28T06:36:53.833Z,9.30
2019-04-28T06:39:57.302Z,9.20
2019-04-28T06:43:00.742Z,7.33
2019-04-28T06:46:04.370Z,9.63
2019-04-28T06:49:07.850Z,9.13
2019-04-28T06:52:11.277Z,8.83
2019-04-28T06:55:14.822Z,7.70
2019-04-28T06:58:18.264Z,10.13
2019-04-28T07:01:21.743Z,7.47
2019-04-28T07:04:25.178Z,7.67
2019-04-28T07:07:28.650Z,9.70
2019-04-28T07:10:32.104Z,8.13
2019-04-28T07:13:35.569Z,11.43
2019-04-28T07:16:39.030Z,9.40
2019-04-28T07:19:47.101Z,8.40
2019-04-28T07:22:50.701Z,9.20
2019-04-28T07:25:54.421Z,8.67
2019-04-28T07:28:58.106Z,10.70
2019-04-28T07:32:02.375Z,11.93
2019-04-28T07:35:06.708Z,9.00
2019-04-28T07:38:10.292Z,8.20
2019-04-28T07:41:13.914Z,12.03
2019-04-28T07:44:17.517Z,11.27
2019-04-28T07:47:20.960Z,10.67
2019-04-28T07:50:24.626Z,10.23
2019-04-28T07:53:35.654Z,11.03
2019-04-28T07:56:39.277Z,12.90
2019-04-28T07:59:42.913Z,10.30
2019-04-28T08:02:46.635Z,9.53
2019-04-28T08:05:50.149Z,12.17
2019-04-28T08:08:53.618Z,14.23
2019-04-28T08:11:57.090Z,10.70
2019-04-28T08:15:00.546Z,12.90
2019-04-28T08:18:05.165Z,12.13
2019-04-28T08:21:08.597Z,15.63
2019-04-28T08:24:12.070Z,12.57
2019-04-28T08:27:15.548Z,13.03
2019-04-28T08:30:19.125Z,16.03
2019-04-28T08:33:39.570Z,19.50
2019-04-28T08:36:43.022Z,14.27
2019-04-28T08:39:47.123Z,13.47
2019-04-28T08:42:50.564Z,11.67
2019-04-28T08:45:54.025Z,11.73
2019-04-28T08:48:57.502Z,14.30
2019-04-28T08:52:00.942Z,16.27
2019-04-28T08:55:07.049Z,11.73
2019-04-28T08:58:10.485Z,12.07
2019-04-28T09:01:14.026Z,13.70
2019-04-28T09:04:17.472Z,19.37
2019-04-28T09:07:21.013Z,12.47
2019-04-28T09:10:24.492Z,13.43
2019-04-28T09:13:27.917Z,16.50
2019-04-28T09:16:31.394Z,12.40
2019-04-28T09:19:34.841Z,14.47
2019-04-28T09:22:38.393Z,14.20
2019-04-28T09:25:41.838Z,13.03
2019-04-28T09:28:45.297Z,13.83
2019-04-28T09:31:51.783Z,17.67
2019-04-28T09:34:55.228Z,15.60
2019-04-28T09:37:58.690Z,18.93
2019-04-28T09:41:02.133Z,18.00
2019-04-28T09:44:07.246Z,15.53
2019-04-28T09:47:10.731Z,14.37
2019-04-28T09:50:14.258Z,19.73
2019-04-28T09:53:17.720Z,17.77
2019-04-28T09:56:22.555Z,17.00
2019-04-28T09:59:26.004Z,15.23
2019-04-28T10:02:29.471Z,16.00
2019-04-28T10:05:32.910Z,15.37
2019-04-28T10:08:36.717Z,14.00
2019-04-28T10:11:40.319Z,15.50
2019-04-28T10:14:43.758Z,14.80
2019-04-28T10:17:47.222Z,16.57
2019-04-28T10:20:50.686Z,16.40
2019-04-28T10:23:54.122Z,16.87
2019-04-28T10:26:57.590Z,18.90
2019-04-28T10:30:01.061Z,21.80
2019-04-28T10:33:04.521Z,13.47
2019-04-28T10:36:07.977Z,17.63
2019-04-28T10:39:25.347Z,15.23
2019-04-28T10:42:28.810Z,15.27
2019-04-28T10:45:34.160Z,15.87
2019-04-28T10:48:37.621Z,17.30
2019-04-28T10:51:41.082Z,13.90
2019-04-28T10:54:44.547Z,9.87
2019-04-28T10:57:47.997Z,10.20
2019-04-28T11:00:51.466Z,12.73
2019-04-28T11:03:56.614Z,9.50
2019-04-28T11:07:00.067Z,13.90
2019-04-28T11:10:08.798Z,11.47
2019-04-28T11:13:12.333Z,10.17
2019-04-28T11:16:17.524Z,10.50
2019-04-28T11:19:21.102Z,9.80
2019-04-28T11:22:24.611Z,9.37
2019-04-28T11:25:28.069Z,9.43
2019-04-28T11:28:31.549Z,11.60
2019-04-28T11:31:34.982Z,8.90
2019-04-28T11:34:48.915Z,7.40
2019-04-28T11:37:52.366Z,12.83
2019-04-28T11:40:55.831Z,9.97
2019-04-28T11:43:59.269Z,6.67
2019-04-28T11:47:03.777Z,8.23
2019-04-28T11:50:07.505Z,7.43
2019-04-28T11:53:11.015Z,7.57
2019-04-28T11:56:14.478Z,6.53
2019-04-28T11:59:17.946Z,6.90
2019-04-28T12:02:21.402Z,8.20
2019-04-28T12:05:34.440Z,8.43
2019-04-28T12:08:31.693Z,9.87
2019-04-28T12:11:39.420Z,8.97
2019-04-28T12:14:47.175Z,7.00
2019-04-28T12:17:52.250Z,10.77
2019-04-28T12:20:55.710Z,6.73
2019-04-28T12:23:59.167Z,6.10
2019-04-28T12:27:02.703Z,8.53
2019-04-28T12:30:06.900Z,8.77
2019-04-28T12:33:10.357Z,8.63
2019-04-28T12:36:13.826Z,6.83
2019-04-28T12:39:17.290Z,11.67
2019-04-28T12:42:20.747Z,8.70
2019-04-28T12:45:34.531Z,6.47
2019-04-28T12:48:29.525Z,10.60
2019-04-28T12:51:32.981Z,7.60
2019-04-28T12:54:38.062Z,7.03
2019-04-28T12:57:41.532Z,8.83
2019-04-28T13:00:46.603Z,8.43
2019-04-28T13:03:51.710Z,10.70
2019-04-28T13:07:02.525Z,8.53
2019-04-28T13:10:07.114Z,10.03
2019-04-28T13:13:10.643Z,7.63
2019-04-28T13:16:14.097Z,8.77
2019-04-28T13:19:17.548Z,9.17
2019-04-28T13:22:21.028Z,7.03
2019-04-28T13:25:24.517Z,8.57
2019-04-28T13:28:27.977Z,8.90
2019-04-28T13:31:31.446Z,7.73
2019-04-28T13:34:36.535Z,10.20
2019-04-28T13:37:39.983Z,6.80
2019-04-28T13:40:43.451Z,8.83
2019-04-28T13:43:46.903Z,6.97
2019-04-28T13:46:50.358Z,9.50
2019-04-28T13:49:55.441Z,6.90
2019-04-28T13:52:58.910Z,6.60
2019-04-28T13:56:03.323Z,13.50
2019-04-28T13:59:08.497Z,7.37
2019-04-28T14:02:30.275Z,9.23
2019-04-28T14:05:44.565Z,9.13
2019-04-28T14:08:48.037Z,9.63
2019-04-28T14:11:51.526Z,9.53
2019-04-28T14:14:54.975Z,11.50
2019-04-28T14:17:58.425Z,8.70
2019-04-28T14:21:01.896Z,8.37
2019-04-28T14:24:05.352Z,6.00
2019-04-28T14:27:08.799Z,7.00
2019-04-28T14:30:13.307Z,8.30
2019-04-28T14:33:16.850Z,8.27
2019-04-28T14:36:20.361Z,8.03
2019-04-28T14:39:23.896Z,8.13
2019-04-28T14:42:27.349Z,6.80
2019-04-28T14:45:30.809Z,7.73
2019-04-28T14:48:34.301Z,9.67
2019-04-28T14:51:37.791Z,6.10
2019-04-28T14:54:41.230Z,5.03
2019-04-28T14:57:44.681Z,4.90
2019-04-28T15:00:52.800Z,6.30
2019-04-28T15:03:57.929Z,8.93
2019-04-28T15:07:05.770Z,5.20
2019-04-28T15:10:17.340Z,7.23
2019-04-28T15:13:22.075Z,4.50
2019-04-28T15:16:25.697Z,5.20
2019-04-28T15:19:29.271Z,5.37
2019-04-28T15:22:32.764Z,4.60
2019-04-28T15:25:36.226Z,3.27
2019-04-28T15:28:39.676Z,4.67
2019-04-28T15:31:43.139Z,4.93
2019-04-28T15:34:46.578Z,4.23
2019-04-28T15:37:50.028Z,7.37
2019-04-28T15:40:53.561Z,4.67
2019-04-28T15:43:57.022Z,6.70
2019-04-28T15:47:00.482Z,3.90
2019-04-28T15:50:05.870Z,7.40
2019-04-28T15:53:09.325Z,4.07
2019-04-28T15:56:26.692Z,7.13
2019-04-28T15:59:30.145Z,7.93
2019-04-28T16:02:33.594Z,4.40
2019-04-28T16:05:37.034Z,6.97
2019-04-28T16:08:40.497Z,6.63
2019-04-28T16:11:44.978Z,6.87
2019-04-28T16:14:48.442Z,8.53
2019-04-28T16:17:51.906Z,5.60
2019-04-28T16:20:55.365Z,5.90
2019-04-28T16:23:59.669Z,7.67
2019-04-28T16:27:03.378Z,5.97
2019-04-28T16:30:06.915Z,5.03
2019-04-28T16:33:10.356Z,5.73
2019-04-28T16:36:13.818Z,7.23
2019-04-28T16:39:17.254Z,8.70
2019-04-28T16:42:20.717Z,8.03
2019-04-28T16:45:24.182Z,7.23
2019-04-28T16:48:27.649Z,8.13
2019-04-28T16:51:31.110Z,8.30
2019-04-28T16:54:34.560Z,6.23
2019-04-28T16:57:39.642Z,6.07
2019-04-28T17:00:50.465Z,8.83
2019-04-28T17:03:53.917Z,4.83
2019-04-28T17:06:57.354Z,7.53
2019-04-28T17:10:00.815Z,4.80
2019-04-28T17:13:04.326Z,7.67
2019-04-28T17:16:07.862Z,6.13
2019-04-28T17:19:11.323Z,9.93
2019-04-28T17:22:14.785Z,8.97
2019-04-28T17:25:18.249Z,5.63
2019-04-28T17:28:21.705Z,4.63
2019-04-28T17:31:25.190Z,8.17
2019-04-28T17:34:28.659Z,5.97
2019-04-28T17:37:32.125Z,6.77
2019-04-28T17:40:35.834Z,5.43
2019-04-28T17:43:39.299Z,10.93
2019-04-28T17:46:42.779Z,11.07
2019-04-28T17:49:46.215Z,6.97
2019-04-28T17:52:49.686Z,7.03
2019-04-28T17:55:53.131Z,4.00
2019-04-28T17:58:56.608Z,6.13
2019-04-28T18:02:18.332Z,4.97
2019-04-28T18:05:26.605Z,7.20
2019-04-28T18:08:31.423Z,10.30
2019-04-28T18:11:34.877Z,7.83
2019-04-28T18:14:39.890Z,9.40
2019-04-28T18:17:53.846Z,5.23
2019-04-28T18:20:57.368Z,4.37
2019-04-28T18:24:00.810Z,7.87
2019-04-28T18:27:04.271Z,18.40
2019-04-28T18:30:07.772Z,8.23
2019-04-28T18:33:12.874Z,6.33
2019-04-28T18:36:17.988Z,6.33
2019-04-28T18:39:25.799Z,7.23
2019-04-28T18:42:33.845Z,6.60
2019-04-28T18:45:38.443Z,8.07
2019-04-28T18:48:41.875Z,8.83
2019-04-28T18:51:45.359Z,7.07
2019-04-28T18:54:48.866Z,5.83
2019-04-28T18:57:52.313Z,6.97
2019-04-28T19:01:00.403Z,5.67
2019-04-28T19:04:03.846Z,6.40
2019-04-28T19:07:08.938Z,6.87
2019-04-28T19:10:30.734Z,6.33
2019-04-28T19:13:35.798Z,6.97
2019-04-28T19:16:40.896Z,7.03
2019-04-28T19:19:44.330Z,7.93
2019-04-28T19:22:47.789Z,30.07
2019-04-28T19:25:51.253Z,14.87
2019-04-28T19:28:54.686Z,7.10
2019-04-28T19:31:58.158Z,6.07
2019-04-28T19:35:01.590Z,9.07
2019-04-28T19:38:05.045Z,10.53
2019-04-28T19:41:08.523Z,10.47
2019-04-28T19:44:12.944Z,5.70
2019-04-28T19:47:16.400Z,7.33
2019-04-28T19:50:19.858Z,8.13
2019-04-28T19:53:23.302Z,5.30
2019-04-28T19:56:40.369Z,6.13
2019-04-28T20:00:01.734Z,5.20
2019-04-28T20:03:05.526Z,6.20
2019-04-28T20:06:08.982Z,5.93
2019-04-28T20:09:12.438Z,7.63
2019-04-28T20:12:15.900Z,7.93
2019-04-28T20:15:19.359Z,9.07
2019-04-28T20:18:22.812Z,8.63
2019-04-28T20:21:26.273Z,9.60
2019-04-28T20:24:29.749Z,8.77
2019-04-28T20:27:33.258Z,9.53
2019-04-28T20:30:36.726Z,8.60
2019-04-28T20:33:40.161Z,10.57
2019-04-28T20:36:45.264Z,9.53
2019-04-28T20:39:50.378Z,11.53
2019-04-28T20:43:02.122Z,7.90
2019-04-28T20:46:07.570Z,7.67
2019-04-28T20:49:11.030Z,8.70
2019-04-28T20:52:14.495Z,7.33
2019-04-28T20:55:17.926Z,7.03
2019-04-28T20:58:21.400Z,9.97
2019-04-28T21:01:24.876Z,6.67
2019-04-28T21:04:28.320Z,6.17
2019-04-28T21:07:31.809Z,8.43
2019-04-28T21:10:38.144Z,7.20
2019-04-28T21:13:40.454Z,6.27
2019-04-28T21:16:43.987Z,6.27
2019-04-28T21:19:47.425Z,6.60
2019-04-28T21:22:50.908Z,7.33
2019-04-28T21:25:54.338Z,10.17
2019-04-28T21:28:57.813Z,7.63
2019-04-28T21:32:01.263Z,8.13
2019-04-28T21:35:05.038Z,6.73
2019-04-28T21:38:08.499Z,8.33
2019-04-28T21:41:13.597Z,8.63
2019-04-28T21:44:18.695Z,7.10
2019-04-28T21:47:23.776Z,6.80
2019-04-28T21:50:27.237Z,7.87
2019-04-28T21:53:30.711Z,7.47
2019-04-28T21:56:34.153Z,7.10
2019-04-28T21:59:37.607Z,7.77
2019-04-28T22:02:41.045Z,8.53
2019-04-28T22:05:44.502Z,9.83
2019-04-28T22:08:47.965Z,8.50
2019-04-28T22:11:51.429Z,10.53
2019-04-28T22:14:54.869Z,8.50
2019-04-28T22:17:58.332Z,10.00
2019-04-28T22:21:01.803Z,7.40
2019-04-28T22:24:06.870Z,9.20
2019-04-28T22:27:11.703Z,7.13
2019-04-28T22:30:15.355Z,11.23
2019-04-28T22:33:18.809Z,18.27
2019-04-28T22:36:22.250Z,11.13
2019-04-28T22:39:25.706Z,9.30
2019-04-28T22:42:29.145Z,8.57
2019-04-28T22:45:32.601Z,9.77
2019-04-28T22:48:36.051Z,12.30
2019-04-28T22:51:39.502Z,11.47
2019-04-28T22:54:47.665Z,10.73
2019-04-28T22:57:52.766Z,9.33
2019-04-28T23:00:57.866Z,8.03
2019-04-28T23:04:02.964Z,10.17
2019-04-28T23:07:06.416Z,10.07
2019-04-28T23:10:10.326Z,11.07
2019-04-28T23:13:13.842Z,11.10
2019-04-28T23:16:17.298Z,9.87
2019-04-28T23:19:22.393Z,13.53
2019-04-28T23:22:27.493Z,10.70
2019-04-28T23:25:30.940Z,9.33
2019-04-28T23:28:34.400Z,10.53
2019-04-28T23:31:37.838Z,9.83
2019-04-28T23:34:41.288Z,12.23
2019-04-28T23:37:44.731Z,10.70
2019-04-28T23:40:52.717Z,9.80
2019-04-28T23:43:56.158Z,10.47
2019-04-28T23:47:00.895Z,10.40
2019-04-28T23:50:07.081Z,14.77
2019-04-28T23:53:12.162Z,12.80
2019-04-28T23:56:15.622Z,11.27
2019-04-28T23:59:19.078Z,13.47
